sensor_id;sensor_type;location;lat;lon;timestamp;pressure;altitude;pressure_sealevel;temperature;humidity
67803;BME280;54601;51.378;-1.342;2023-06-22T00:02:16;100538.11;;;23.68;36.65
67803;BME280;54601;51.378;-1.342;2023-06-22T00:04:43;100538.66;;;23.79;36.52
67803;BME280;54601;51.378;-1.342;2023-06-22T00:07:07;100536.04;;;23.67;36.63
67803;BME280;54601;51.378;-1.342;2023-06-22T00:09:33;100540.15;;;23.79;36.45
67803;BME280;54601;51.378;-1.342;2023-06-22T00:11:58;100537.41;;;23.63;36.62
67803;BME280;54601;51.378;-1.342;2023-06-22T00:14:23;100533.66;;;23.84;36.67
67803;BME280;54601;51.378;-1.342;2023-06-22T00:16:48;100533.30;;;23.44;36.83
67803;BME280;54601;51.378;-1.342;2023-06-22T00:19:14;100533.16;;;23.61;36.60
67803;BME280;54601;51.378;-1.342;2023-06-22T00:21:39;100529.32;;;23.98;36.47
67803;BME280;54601;51.378;-1.342;2023-06-22T00:24:05;100526.52;;;23.88;36.58
67803;BME280;54601;51.378;-1.342;2023-06-22T00:26:30;100521.58;;;23.73;36.74
67803;BME280;54601;51.378;-1.342;2023-06-22T00:28:55;100524.61;;;24.02;36.33
67803;BME280;54601;51.378;-1.342;2023-06-22T00:31:21;100528.17;;;23.73;36.71
67803;BME280;54601;51.378;-1.342;2023-06-22T00:33:46;100530.65;;;23.68;36.74
67803;BME280;54601;51.378;-1.342;2023-06-22T00:36:11;100532.48;;;23.85;36.17
67803;BME280;54601;51.378;-1.342;2023-06-22T00:38:37;100531.79;;;23.55;36.49
67803;BME280;54601;51.378;-1.342;2023-06-22T00:41:02;100536.31;;;23.89;36.41
67803;BME280;54601;51.378;-1.342;2023-06-22T00:43:27;100539.42;;;23.72;36.57
67803;BME280;54601;51.378;-1.342;2023-06-22T00:45:52;100541.26;;;23.67;36.31
67803;BME280;54601;51.378;-1.342;2023-06-22T00:48:18;100538.09;;;23.71;36.56
67803;BME280;54601;51.378;-1.342;2023-06-22T00:50:43;100538.81;;;23.42;36.57
67803;BME280;54601;51.378;-1.342;2023-06-22T00:53:09;100540.99;;;23.57;36.37
67803;BME280;54601;51.378;-1.342;2023-06-22T00:55:35;100538.47;;;23.64;36.56
67803;BME280;54601;51.378;-1.342;2023-06-22T00:57:59;100538.24;;;23.79;36.36
67803;BME280;54601;51.378;-1.342;2023-06-22T01:00:25;100537.06;;;23.41;36.47
67803;BME280;54601;51.378;-1.342;2023-06-22T01:02:51;100535.32;;;23.58;36.57
67803;BME280;54601;51.378;-1.342;2023-06-22T01:05:19;100527.05;;;23.52;36.64
67803;BME280;54601;51.378;-1.342;2023-06-22T01:07:46;100522.96;;;23.63;36.48
67803;BME280;54601;51.378;-1.342;2023-06-22T01:10:08;100522.76;;;23.62;36.47
67803;BME280;54601;51.378;-1.342;2023-06-22T01:12:37;100526.17;;;23.37;36.77
67803;BME280;54601;51.378;-1.342;2023-06-22T01:15:04;100529.30;;;23.54;36.53
67803;BME280;54601;51.378;-1.342;2023-06-22T01:17:23;100535.59;;;23.55;36.50
67803;BME280;54601;51.378;-1.342;2023-06-22T01:19:49;100535.51;;;23.52;36.48
67803;BME280;54601;51.378;-1.342;2023-06-22T01:22:16;100537.26;;;23.41;36.61
67803;BME280;54601;51.378;-1.342;2023-06-22T01:24:47;100534.05;;;23.21;36.50
67803;BME280;54601;51.378;-1.342;2023-06-22T01:27:13;100534.15;;;23.37;36.60
67803;BME280;54601;51.378;-1.342;2023-06-22T01:29:29;100540.88;;;23.45;36.47
67803;BME280;54601;51.378;-1.342;2023-06-22T01:31:56;100540.76;;;23.30;36.67
67803;BME280;54601;51.378;-1.342;2023-06-22T01:34:20;100538.52;;;23.01;36.71
67803;BME280;54601;51.378;-1.342;2023-06-22T01:36:46;100537.06;;;23.31;36.58
67803;BME280;54601;51.378;-1.342;2023-06-22T01:39:10;100534.91;;;23.31;36.58
67803;BME280;54601;51.378;-1.342;2023-06-22T01:41:37;100537.56;;;23.20;36.70
67803;BME280;54601;51.378;-1.342;2023-06-22T01:44:01;100540.71;;;23.42;36.38
67803;BME280;54601;51.378;-1.342;2023-06-22T01:46:26;100545.13;;;23.36;36.42
67803;BME280;54601;51.378;-1.342;2023-06-22T01:48:52;100543.34;;;22.92;36.62
67803;BME280;54601;51.378;-1.342;2023-06-22T01:51:17;100539.84;;;23.13;36.69
67803;BME280;54601;51.378;-1.342;2023-06-22T01:53:42;100539.79;;;23.16;36.61
67803;BME280;54601;51.378;-1.342;2023-06-22T01:56:08;100540.83;;;23.03;36.75
67803;BME280;54601;51.378;-1.342;2023-06-22T01:58:33;100541.50;;;23.26;36.72
67803;BME280;54601;51.378;-1.342;2023-06-22T02:01:03;100541.97;;;23.22;36.46
67803;BME280;54601;51.378;-1.342;2023-06-22T02:03:28;100543.91;;;23.62;36.46
67803;BME280;54601;51.378;-1.342;2023-06-22T02:05:52;100550.00;;;23.22;36.42
67803;BME280;54601;51.378;-1.342;2023-06-22T02:08:20;100553.17;;;23.34;36.49
67803;BME280;54601;51.378;-1.342;2023-06-22T02:10:41;100551.49;;;22.84;36.86
67803;BME280;54601;51.378;-1.342;2023-06-22T02:13:07;100544.66;;;22.99;36.63
67803;BME280;54601;51.378;-1.342;2023-06-22T02:15:31;100541.30;;;22.89;36.73
67803;BME280;54601;51.378;-1.342;2023-06-22T02:17:56;100540.33;;;23.13;37.00
67803;BME280;54601;51.378;-1.342;2023-06-22T02:20:21;100542.25;;;22.85;36.78
67803;BME280;54601;51.378;-1.342;2023-06-22T02:22:47;100541.20;;;22.84;36.73
67803;BME280;54601;51.378;-1.342;2023-06-22T02:25:12;100539.68;;;23.28;36.71
67803;BME280;54601;51.378;-1.342;2023-06-22T02:27:37;100541.98;;;22.63;36.96
67803;BME280;54601;51.378;-1.342;2023-06-22T02:30:03;100543.22;;;23.08;36.66
67803;BME280;54601;51.378;-1.342;2023-06-22T02:32:28;100538.97;;;22.71;36.82
67803;BME280;54601;51.378;-1.342;2023-06-22T02:34:53;100538.50;;;23.19;36.74
67803;BME280;54601;51.378;-1.342;2023-06-22T02:37:19;100541.85;;;22.90;36.49
67803;BME280;54601;51.378;-1.342;2023-06-22T02:39:44;100544.95;;;22.74;36.99
67803;BME280;54601;51.378;-1.342;2023-06-22T02:42:10;100545.66;;;23.26;36.56
67803;BME280;54601;51.378;-1.342;2023-06-22T02:44:35;100546.58;;;22.94;36.70
67803;BME280;54601;51.378;-1.342;2023-06-22T02:47:00;100547.87;;;22.57;36.83
67803;BME280;54601;51.378;-1.342;2023-06-22T02:49:26;100548.82;;;23.07;36.49
67803;BME280;54601;51.378;-1.342;2023-06-22T02:51:51;100547.30;;;22.66;36.68
67803;BME280;54601;51.378;-1.342;2023-06-22T02:54:16;100552.17;;;22.57;36.74
67803;BME280;54601;51.378;-1.342;2023-06-22T02:56:42;100555.53;;;22.66;36.64
67803;BME280;54601;51.378;-1.342;2023-06-22T02:59:07;100555.31;;;23.31;36.31
67803;BME280;54601;51.378;-1.342;2023-06-22T03:01:33;100554.90;;;23.06;36.66
67803;BME280;54601;51.378;-1.342;2023-06-22T03:03:58;100548.67;;;22.90;36.78
67803;BME280;54601;51.378;-1.342;2023-06-22T03:06:23;100542.77;;;22.77;36.92
67803;BME280;54601;51.378;-1.342;2023-06-22T03:08:49;100535.21;;;22.96;36.64
67803;BME280;54601;51.378;-1.342;2023-06-22T03:11:14;100535.38;;;22.83;36.19
67803;BME280;54601;51.378;-1.342;2023-06-22T03:13:39;100532.03;;;22.96;36.60
67803;BME280;54601;51.378;-1.342;2023-06-22T03:16:05;100533.79;;;22.57;36.85
67803;BME280;54601;51.378;-1.342;2023-06-22T03:18:30;100530.00;;;22.54;36.81
67803;BME280;54601;51.378;-1.342;2023-06-22T03:20:56;100527.34;;;22.58;36.47
67803;BME280;54601;51.378;-1.342;2023-06-22T03:23:21;100524.44;;;22.90;36.62
67803;BME280;54601;51.378;-1.342;2023-06-22T03:25:47;100524.41;;;22.91;36.50
67803;BME280;54601;51.378;-1.342;2023-06-22T03:28:12;100528.75;;;22.34;36.75
67803;BME280;54601;51.378;-1.342;2023-06-22T03:30:37;100529.28;;;22.20;36.89
67803;BME280;54601;51.378;-1.342;2023-06-22T03:33:03;100528.78;;;22.85;36.61
67803;BME280;54601;51.378;-1.342;2023-06-22T03:35:28;100524.61;;;22.63;36.55
67803;BME280;54601;51.378;-1.342;2023-06-22T03:37:53;100523.22;;;22.86;36.51
67803;BME280;54601;51.378;-1.342;2023-06-22T03:40:19;100525.13;;;22.75;36.60
67803;BME280;54601;51.378;-1.342;2023-06-22T03:42:44;100518.08;;;22.63;36.50
67803;BME280;54601;51.378;-1.342;2023-06-22T03:45:10;100520.76;;;22.53;36.54
67803;BME280;54601;51.378;-1.342;2023-06-22T03:47:35;100521.72;;;22.65;36.72
67803;BME280;54601;51.378;-1.342;2023-06-22T03:50:00;100515.57;;;22.77;36.55
67803;BME280;54601;51.378;-1.342;2023-06-22T03:52:25;100514.58;;;22.80;36.48
67803;BME280;54601;51.378;-1.342;2023-06-22T03:54:51;100512.52;;;22.41;36.38
67803;BME280;54601;51.378;-1.342;2023-06-22T03:57:16;100510.85;;;22.69;36.61
67803;BME280;54601;51.378;-1.342;2023-06-22T03:59:42;100511.12;;;22.38;36.72
67803;BME280;54601;51.378;-1.342;2023-06-22T04:02:07;100506.38;;;22.68;36.56
67803;BME280;54601;51.378;-1.342;2023-06-22T04:04:32;100506.29;;;22.56;36.69
67803;BME280;54601;51.378;-1.342;2023-06-22T04:06:58;100504.59;;;22.69;36.49
67803;BME280;54601;51.378;-1.342;2023-06-22T04:09:23;100510.46;;;22.36;36.64
67803;BME280;54601;51.378;-1.342;2023-06-22T04:11:49;100513.97;;;22.61;36.71
67803;BME280;54601;51.378;-1.342;2023-06-22T04:14:14;100517.68;;;22.17;36.89
67803;BME280;54601;51.378;-1.342;2023-06-22T04:16:39;100517.78;;;22.81;36.26
67803;BME280;54601;51.378;-1.342;2023-06-22T04:19:05;100523.14;;;22.56;36.64
67803;BME280;54601;51.378;-1.342;2023-06-22T04:21:31;100524.57;;;22.61;36.51
67803;BME280;54601;51.378;-1.342;2023-06-22T04:23:55;100526.72;;;22.73;36.42
67803;BME280;54601;51.378;-1.342;2023-06-22T04:26:21;100523.85;;;22.55;36.56
67803;BME280;54601;51.378;-1.342;2023-06-22T04:28:46;100524.46;;;22.94;36.42
67803;BME280;54601;51.378;-1.342;2023-06-22T04:31:12;100526.44;;;22.60;36.49
67803;BME280;54601;51.378;-1.342;2023-06-22T04:33:37;100527.30;;;22.49;36.62
67803;BME280;54601;51.378;-1.342;2023-06-22T04:36:03;100528.91;;;22.55;36.55
67803;BME280;54601;51.378;-1.342;2023-06-22T04:38:28;100528.23;;;22.34;36.51
67803;BME280;54601;51.378;-1.342;2023-06-22T04:40:53;100526.77;;;22.39;36.72
67803;BME280;54601;51.378;-1.342;2023-06-22T04:43:19;100522.53;;;22.35;36.74
67803;BME280;54601;51.378;-1.342;2023-06-22T04:45:44;100524.57;;;22.47;36.58
67803;BME280;54601;51.378;-1.342;2023-06-22T04:48:09;100523.62;;;22.43;36.60
67803;BME280;54601;51.378;-1.342;2023-06-22T04:50:35;100523.64;;;22.05;36.77
67803;BME280;54601;51.378;-1.342;2023-06-22T04:53:00;100525.51;;;21.95;36.63
67803;BME280;54601;51.378;-1.342;2023-06-22T04:55:25;100524.47;;;22.51;36.46
67803;BME280;54601;51.378;-1.342;2023-06-22T04:57:51;100529.96;;;22.57;36.42
67803;BME280;54601;51.378;-1.342;2023-06-22T05:00:17;100534.19;;;22.07;36.71
67803;BME280;54601;51.378;-1.342;2023-06-22T05:02:42;100532.78;;;22.71;35.97
67803;BME280;54601;51.378;-1.342;2023-06-22T05:05:08;100528.94;;;22.58;36.33
67803;BME280;54601;51.378;-1.342;2023-06-22T05:07:33;100529.23;;;22.36;36.31
67803;BME280;54601;51.378;-1.342;2023-06-22T05:09:58;100529.37;;;22.46;36.47
67803;BME280;54601;51.378;-1.342;2023-06-22T05:12:23;100530.54;;;22.30;36.65
67803;BME280;54601;51.378;-1.342;2023-06-22T05:14:49;100528.39;;;22.16;36.63
67803;BME280;54601;51.378;-1.342;2023-06-22T05:17:14;100531.68;;;22.23;36.41
67803;BME280;54601;51.378;-1.342;2023-06-22T05:19:40;100530.08;;;22.31;36.64
67803;BME280;54601;51.378;-1.342;2023-06-22T05:22:05;100533.62;;;22.44;36.42
67803;BME280;54601;51.378;-1.342;2023-06-22T05:24:30;100534.01;;;22.35;36.51
67803;BME280;54601;51.378;-1.342;2023-06-22T05:26:56;100534.56;;;22.37;36.53
67803;BME280;54601;51.378;-1.342;2023-06-22T05:29:21;100532.54;;;22.37;36.50
67803;BME280;54601;51.378;-1.342;2023-06-22T05:31:47;100534.91;;;22.21;36.41
67803;BME280;54601;51.378;-1.342;2023-06-22T05:34:12;100539.64;;;22.34;36.54
67803;BME280;54601;51.378;-1.342;2023-06-22T05:36:37;100541.46;;;22.71;36.46
67803;BME280;54601;51.378;-1.342;2023-06-22T05:39:10;100549.52;;;22.58;36.18
67803;BME280;54601;51.378;-1.342;2023-06-22T05:41:28;100555.25;;;22.66;36.08
67803;BME280;54601;51.378;-1.342;2023-06-22T05:43:53;100556.23;;;22.54;36.24
67803;BME280;54601;51.378;-1.342;2023-06-22T05:46:19;100558.40;;;22.44;36.36
67803;BME280;54601;51.378;-1.342;2023-06-22T05:48:44;100560.87;;;22.57;35.86
67803;BME280;54601;51.378;-1.342;2023-06-22T05:51:10;100568.13;;;22.60;35.84
67803;BME280;54601;51.378;-1.342;2023-06-22T05:53:35;100566.67;;;22.75;35.97
67803;BME280;54601;51.378;-1.342;2023-06-22T05:56:00;100563.00;;;22.50;36.23
67803;BME280;54601;51.378;-1.342;2023-06-22T05:58:26;100563.12;;;22.73;35.71
67803;BME280;54601;51.378;-1.342;2023-06-22T06:00:51;100562.60;;;22.90;35.72
67803;BME280;54601;51.378;-1.342;2023-06-22T06:03:16;100562.10;;;22.85;35.79
67803;BME280;54601;51.378;-1.342;2023-06-22T06:05:42;100564.60;;;23.03;35.56
67803;BME280;54601;51.378;-1.342;2023-06-22T06:08:07;100564.11;;;23.26;35.01
67803;BME280;54601;51.378;-1.342;2023-06-22T06:10:33;100564.56;;;22.92;35.14
67803;BME280;54601;51.378;-1.342;2023-06-22T06:12:58;100568.38;;;23.25;35.28
67803;BME280;54601;51.378;-1.342;2023-06-22T06:15:24;100571.92;;;22.92;35.46
67803;BME280;54601;51.378;-1.342;2023-06-22T06:17:50;100573.14;;;23.45;35.04
67803;BME280;54601;51.378;-1.342;2023-06-22T06:20:14;100566.88;;;22.99;35.11
67803;BME280;54601;51.378;-1.342;2023-06-22T06:22:40;100557.02;;;23.12;35.22
67803;BME280;54601;51.378;-1.342;2023-06-22T06:25:06;100550.19;;;23.12;34.95
67803;BME280;54601;51.378;-1.342;2023-06-22T06:27:30;100552.16;;;23.67;34.78
67803;BME280;54601;51.378;-1.342;2023-06-22T06:29:56;100556.19;;;23.82;34.63
67803;BME280;54601;51.378;-1.342;2023-06-22T06:32:21;100558.35;;;24.08;34.34
67803;BME280;54601;51.378;-1.342;2023-06-22T06:34:47;100554.14;;;24.30;34.09
67803;BME280;54601;51.378;-1.342;2023-06-22T06:37:12;100549.55;;;24.31;33.88
67803;BME280;54601;51.378;-1.342;2023-06-22T06:39:37;100544.14;;;24.33;33.65
67803;BME280;54601;51.378;-1.342;2023-06-22T06:42:04;100544.16;;;24.46;33.49
67803;BME280;54601;51.378;-1.342;2023-06-22T06:44:28;100549.92;;;25.01;33.33
67803;BME280;54601;51.378;-1.342;2023-06-22T06:46:54;100549.87;;;24.49;33.44
67803;BME280;54601;51.378;-1.342;2023-06-22T06:49:19;100556.63;;;24.68;33.33
67803;BME280;54601;51.378;-1.342;2023-06-22T06:51:44;100550.73;;;24.89;33.11
67803;BME280;54601;51.378;-1.342;2023-06-22T06:54:10;100549.35;;;24.98;33.04
67803;BME280;54601;51.378;-1.342;2023-06-22T06:56:35;100548.78;;;25.32;32.93
67803;BME280;54601;51.378;-1.342;2023-06-22T06:59:00;100546.40;;;25.17;32.87
67803;BME280;54601;51.378;-1.342;2023-06-22T07:01:26;100547.74;;;25.27;32.79
67803;BME280;54601;51.378;-1.342;2023-06-22T07:03:51;100553.18;;;25.37;32.70
67803;BME280;54601;51.378;-1.342;2023-06-22T07:06:17;100551.56;;;25.37;32.74
67803;BME280;54601;51.378;-1.342;2023-06-22T07:08:42;100543.83;;;25.46;32.67
67803;BME280;54601;51.378;-1.342;2023-06-22T07:11:08;100543.53;;;25.47;32.67
67803;BME280;54601;51.378;-1.342;2023-06-22T07:13:33;100547.41;;;25.59;32.58
67803;BME280;54601;51.378;-1.342;2023-06-22T07:15:58;100552.66;;;25.59;32.63
67803;BME280;54601;51.378;-1.342;2023-06-22T07:18:24;100552.68;;;25.70;32.51
67803;BME280;54601;51.378;-1.342;2023-06-22T07:20:49;100559.63;;;25.72;32.54
67803;BME280;54601;51.378;-1.342;2023-06-22T07:23:14;100556.49;;;25.71;32.58
67803;BME280;54601;51.378;-1.342;2023-06-22T07:25:40;100552.65;;;25.74;32.61
67803;BME280;54601;51.378;-1.342;2023-06-22T07:28:06;100555.60;;;25.80;32.54
67803;BME280;54601;51.378;-1.342;2023-06-22T07:30:32;100554.82;;;25.81;32.55
67803;BME280;54601;51.378;-1.342;2023-06-22T07:32:57;100553.82;;;25.90;32.51
67803;BME280;54601;51.378;-1.342;2023-06-22T07:35:21;100550.14;;;25.67;32.49
67803;BME280;54601;51.378;-1.342;2023-06-22T07:37:47;100549.39;;;25.74;32.47
67803;BME280;54601;51.378;-1.342;2023-06-22T07:40:12;100548.92;;;25.79;32.48
67803;BME280;54601;51.378;-1.342;2023-06-22T07:42:37;100552.21;;;25.83;32.45
67803;BME280;54601;51.378;-1.342;2023-06-22T07:45:04;100553.58;;;25.87;32.43
67803;BME280;54601;51.378;-1.342;2023-06-22T07:47:28;100551.29;;;25.74;32.34
67803;BME280;54601;51.378;-1.342;2023-06-22T07:49:54;100550.82;;;25.97;32.39
67803;BME280;54601;51.378;-1.342;2023-06-22T07:52:19;100548.65;;;26.25;32.40
67803;BME280;54601;51.378;-1.342;2023-06-22T07:54:44;100548.68;;;26.06;32.33
67803;BME280;54601;51.378;-1.342;2023-06-22T07:57:10;100549.34;;;26.12;32.29
67803;BME280;54601;51.378;-1.342;2023-06-22T07:59:36;100549.39;;;26.41;32.34
67803;BME280;54601;51.378;-1.342;2023-06-22T08:02:01;100547.93;;;25.96;32.33
67803;BME280;54601;51.378;-1.342;2023-06-22T08:04:26;100544.86;;;26.49;32.26
67803;BME280;54601;51.378;-1.342;2023-06-22T08:06:51;100542.17;;;26.26;32.27
67803;BME280;54601;51.378;-1.342;2023-06-22T08:09:16;100540.60;;;26.07;32.25
67803;BME280;54601;51.378;-1.342;2023-06-22T08:11:42;100538.19;;;26.36;32.17
67803;BME280;54601;51.378;-1.342;2023-06-22T08:14:07;100537.51;;;26.38;32.20
67803;BME280;54601;51.378;-1.342;2023-06-22T08:16:32;100530.96;;;26.42;32.15
67803;BME280;54601;51.378;-1.342;2023-06-22T08:18:58;100530.03;;;26.27;32.14
67803;BME280;54601;51.378;-1.342;2023-06-22T08:21:23;100532.74;;;26.51;32.20
67803;BME280;54601;51.378;-1.342;2023-06-22T08:23:48;100533.08;;;26.55;32.12
67803;BME280;54601;51.378;-1.342;2023-06-22T08:26:14;100534.46;;;26.32;32.21
67803;BME280;54601;51.378;-1.342;2023-06-22T08:28:39;100534.46;;;26.39;32.15
67803;BME280;54601;51.378;-1.342;2023-06-22T08:31:04;100534.13;;;26.63;32.14
67803;BME280;54601;51.378;-1.342;2023-06-22T08:33:30;100533.09;;;26.71;32.12
67803;BME280;54601;51.378;-1.342;2023-06-22T08:35:55;100536.05;;;26.49;32.11
67803;BME280;54601;51.378;-1.342;2023-06-22T08:38:21;100537.46;;;26.56;32.10
67803;BME280;54601;51.378;-1.342;2023-06-22T08:40:46;100534.59;;;26.61;32.05
67803;BME280;54601;51.378;-1.342;2023-06-22T08:43:11;100535.62;;;26.64;32.07
67803;BME280;54601;51.378;-1.342;2023-06-22T08:45:36;100534.98;;;26.67;32.04
67803;BME280;54601;51.378;-1.342;2023-06-22T08:48:02;100536.55;;;26.73;31.99
67803;BME280;54601;51.378;-1.342;2023-06-22T08:50:27;100536.11;;;26.73;32.05
67803;BME280;54601;51.378;-1.342;2023-06-22T08:52:53;100530.85;;;26.71;32.09
67803;BME280;54601;51.378;-1.342;2023-06-22T08:55:18;100531.45;;;26.81;32.00
67803;BME280;54601;51.378;-1.342;2023-06-22T08:57:43;100534.95;;;27.03;32.00
67803;BME280;54601;51.378;-1.342;2023-06-22T09:00:10;100537.28;;;26.85;32.02
67803;BME280;54601;51.378;-1.342;2023-06-22T09:02:34;100537.79;;;26.89;31.98
67803;BME280;54601;51.378;-1.342;2023-06-22T09:05:02;100536.14;;;26.89;31.98
67803;BME280;54601;51.378;-1.342;2023-06-22T09:07:25;100536.82;;;26.99;31.91
67803;BME280;54601;51.378;-1.342;2023-06-22T09:09:50;100538.40;;;26.91;32.00
67803;BME280;54601;51.378;-1.342;2023-06-22T09:12:15;100539.74;;;26.93;32.02
67803;BME280;54601;51.378;-1.342;2023-06-22T09:14:41;100540.18;;;26.93;32.05
67803;BME280;54601;51.378;-1.342;2023-06-22T09:17:06;100543.71;;;26.87;32.10
67803;BME280;54601;51.378;-1.342;2023-06-22T09:19:31;100543.38;;;26.82;32.14
67803;BME280;54601;51.378;-1.342;2023-06-22T09:21:56;100546.48;;;26.83;32.14
67803;BME280;54601;51.378;-1.342;2023-06-22T09:24:22;100548.91;;;26.90;32.12
67803;BME280;54601;51.378;-1.342;2023-06-22T09:26:47;100550.96;;;26.96;32.07
67803;BME280;54601;51.378;-1.342;2023-06-22T09:29:12;100548.74;;;26.94;32.12
67803;BME280;54601;51.378;-1.342;2023-06-22T09:31:38;100548.16;;;27.04;32.02
67803;BME280;54601;51.378;-1.342;2023-06-22T09:34:03;100545.87;;;27.05;32.00
67803;BME280;54601;51.378;-1.342;2023-06-22T09:36:28;100547.14;;;27.00;32.06
67803;BME280;54601;51.378;-1.342;2023-06-22T09:38:54;100548.09;;;26.92;32.15
67803;BME280;54601;51.378;-1.342;2023-06-22T09:41:19;100549.14;;;26.96;32.09
67803;BME280;54601;51.378;-1.342;2023-06-22T09:43:44;100551.26;;;26.89;32.24
67803;BME280;54601;51.378;-1.342;2023-06-22T09:46:10;100551.74;;;26.91;32.24
67803;BME280;54601;51.378;-1.342;2023-06-22T09:48:35;100555.60;;;26.93;32.22
67803;BME280;54601;51.378;-1.342;2023-06-22T09:51:00;100560.40;;;27.00;32.12
67803;BME280;54601;51.378;-1.342;2023-06-22T09:53:26;100561.40;;;27.01;32.10
67803;BME280;54601;51.378;-1.342;2023-06-22T09:55:51;100560.46;;;27.06;32.07
67803;BME280;54601;51.378;-1.342;2023-06-22T09:58:16;100558.84;;;27.02;32.11
67803;BME280;54601;51.378;-1.342;2023-06-22T10:00:42;100558.22;;;26.72;32.16
67803;BME280;54601;51.378;-1.342;2023-06-22T10:03:07;100558.40;;;27.03;32.11
67803;BME280;54601;51.378;-1.342;2023-06-22T10:05:32;100556.91;;;27.02;32.12
67803;BME280;54601;51.378;-1.342;2023-06-22T10:07:58;100557.68;;;27.02;32.18
67803;BME280;54601;51.378;-1.342;2023-06-22T10:10:23;100557.58;;;26.79;32.16
67803;BME280;54601;51.378;-1.342;2023-06-22T10:12:54;100557.27;;;26.80;32.11
67803;BME280;54601;51.378;-1.342;2023-06-22T10:15:14;100556.94;;;26.86;32.08
67803;BME280;54601;51.378;-1.342;2023-06-22T10:17:39;100554.79;;;27.17;32.04
67803;BME280;54601;51.378;-1.342;2023-06-22T10:20:06;100551.80;;;27.23;32.00
67803;BME280;54601;51.378;-1.342;2023-06-22T10:22:30;100554.76;;;27.22;32.00
67803;BME280;54601;51.378;-1.342;2023-06-22T10:24:55;100558.32;;;27.01;31.96
67803;BME280;54601;51.378;-1.342;2023-06-22T10:27:20;100560.87;;;26.99;31.99
67803;BME280;54601;51.378;-1.342;2023-06-22T10:29:46;100561.79;;;27.30;31.96
67803;BME280;54601;51.378;-1.342;2023-06-22T10:32:11;100559.70;;;27.23;32.05
67803;BME280;54601;51.378;-1.342;2023-06-22T10:34:36;100558.31;;;27.27;31.99
67803;BME280;54601;51.378;-1.342;2023-06-22T10:37:01;100560.88;;;27.32;31.96
67803;BME280;54601;51.378;-1.342;2023-06-22T10:39:27;100558.82;;;27.29;31.98
67803;BME280;54601;51.378;-1.342;2023-06-22T10:41:52;100564.74;;;27.33;31.93
67803;BME280;54601;51.378;-1.342;2023-06-22T10:44:17;100565.74;;;27.11;31.89
67803;BME280;54601;51.378;-1.342;2023-06-22T10:46:43;100566.80;;;27.36;31.92
67803;BME280;54601;51.378;-1.342;2023-06-22T10:49:08;100560.49;;;27.38;31.92
67803;BME280;54601;51.378;-1.342;2023-06-22T10:51:33;100561.88;;;27.12;31.90
67803;BME280;54601;51.378;-1.342;2023-06-22T10:53:59;100561.41;;;27.38;31.94
67803;BME280;54601;51.378;-1.342;2023-06-22T10:56:24;100561.28;;;26.92;31.92
67803;BME280;54601;51.378;-1.342;2023-06-22T10:58:50;100560.33;;;27.41;31.89
67803;BME280;54601;51.378;-1.342;2023-06-22T11:01:15;100562.53;;;26.94;31.88
67803;BME280;54601;51.378;-1.342;2023-06-22T11:03:40;100564.78;;;27.18;31.88
67803;BME280;54601;51.378;-1.342;2023-06-22T11:06:05;100562.74;;;27.16;31.92
67803;BME280;54601;51.378;-1.342;2023-06-22T11:08:31;100561.97;;;27.45;31.91
67803;BME280;54601;51.378;-1.342;2023-06-22T11:10:56;100563.36;;;27.42;31.94
67803;BME280;54601;51.378;-1.342;2023-06-22T11:13:21;100563.63;;;27.39;31.98
67803;BME280;54601;51.378;-1.342;2023-06-22T11:15:47;100566.37;;;26.91;31.97
67803;BME280;54601;51.378;-1.342;2023-06-22T11:18:12;100566.48;;;27.12;31.95
67803;BME280;54601;51.378;-1.342;2023-06-22T11:20:37;100565.73;;;27.38;31.94
67803;BME280;54601;51.378;-1.342;2023-06-22T11:23:03;100566.01;;;27.39;31.94
67803;BME280;54601;51.378;-1.342;2023-06-22T11:25:28;100569.16;;;27.38;31.94
67803;BME280;54601;51.378;-1.342;2023-06-22T11:27:53;100565.05;;;27.11;31.91
67803;BME280;54601;51.378;-1.342;2023-06-22T11:30:19;100568.22;;;27.34;31.99
67803;BME280;54601;51.378;-1.342;2023-06-22T11:32:44;100568.55;;;27.34;31.97
67803;BME280;54601;51.378;-1.342;2023-06-22T11:35:09;100565.70;;;27.34;31.98
67803;BME280;54601;51.378;-1.342;2023-06-22T11:37:35;100565.99;;;27.33;31.99
67803;BME280;54601;51.378;-1.342;2023-06-22T11:40:00;100566.53;;;27.37;31.95
67803;BME280;54601;51.378;-1.342;2023-06-22T11:42:25;100564.56;;;27.32;32.02
67803;BME280;54601;51.378;-1.342;2023-06-22T11:44:51;100562.12;;;27.34;31.98
67803;BME280;54601;51.378;-1.342;2023-06-22T11:47:16;100561.14;;;27.04;32.00
67803;BME280;54601;51.378;-1.342;2023-06-22T11:49:41;100562.30;;;27.36;31.97
67803;BME280;54601;51.378;-1.342;2023-06-22T11:52:07;100561.09;;;27.07;31.98
67803;BME280;54601;51.378;-1.342;2023-06-22T11:54:32;100559.29;;;27.04;32.00
67803;BME280;54601;51.378;-1.342;2023-06-22T11:56:57;100563.81;;;27.05;31.99
67803;BME280;54601;51.378;-1.342;2023-06-22T11:59:22;100564.42;;;26.83;32.01
67803;BME280;54601;51.378;-1.342;2023-06-22T12:01:48;100558.91;;;27.30;32.02
67803;BME280;54601;51.378;-1.342;2023-06-22T12:04:14;100560.70;;;26.83;32.02
67803;BME280;54601;51.378;-1.342;2023-06-22T12:06:39;100553.02;;;27.05;31.99
67803;BME280;54601;51.378;-1.342;2023-06-22T12:09:04;100551.84;;;27.04;32.01
67803;BME280;54601;51.378;-1.342;2023-06-22T12:11:29;100544.20;;;27.29;32.04
67803;BME280;54601;51.378;-1.342;2023-06-22T12:13:54;100541.44;;;27.30;31.99
67803;BME280;54601;51.378;-1.342;2023-06-22T12:16:20;100542.80;;;26.76;32.06
67803;BME280;54601;51.378;-1.342;2023-06-22T12:18:45;100543.66;;;27.31;31.99
67803;BME280;54601;51.378;-1.342;2023-06-22T12:21:10;100544.21;;;27.32;31.99
67803;BME280;54601;51.378;-1.342;2023-06-22T12:23:36;100539.59;;;27.00;32.07
67803;BME280;54601;51.378;-1.342;2023-06-22T12:26:01;100531.44;;;26.82;32.05
67803;BME280;54601;51.378;-1.342;2023-06-22T12:28:26;100530.28;;;27.04;32.04
67803;BME280;54601;51.378;-1.342;2023-06-22T12:30:51;100528.99;;;26.82;32.01